sensor_id;sensor_type;location;lat;lon;timestamp;P1;durP1;ratioP1;P2;durP2;ratioP2
41059;SDS011;26811;53.160;8.202;2023-04-01T00:02:58;31.45;;;15.93;;
41059;SDS011;26811;53.160;8.202;2023-04-01T00:08:00;35.10;;;16.15;;
41059;SDS011;26811;53.160;8.202;2023-04-01T00:13:00;38.45;;;16.60;;
41059;SDS011;26811;53.160;8.202;2023-04-01T00:18:01;39.60;;;16.80;;
41059;SDS011;26811;53.160;8.202;2023-04-01T00:23:02;37.88;;;16.83;;
41059;SDS011;26811;53.160;8.202;2023-04-01T00:28:03;37.00;;;16.95;;
41059;SDS011;26811;53.160;8.202;2023-04-01T00:33:03;38.97;;;17.83;;
41059;SDS011;26811;53.160;8.202;2023-04-01T00:38:04;42.63;;;18.05;;
41059;SDS011;26811;53.160;8.202;2023-04-01T00:43:13;45.58;;;17.45;;
41059;SDS011;26811;53.160;8.202;2023-04-01T00:48:19;38.25;;;17.92;;
41059;SDS011;26811;53.160;8.202;2023-04-01T00:53:23;40.65;;;17.48;;
41059;SDS011;26811;53.160;8.202;2023-04-01T00:58:24;45.05;;;19.38;;
41059;SDS011;26811;53.160;8.202;2023-04-01T01:03:27;42.03;;;19.95;;
41059;SDS011;26811;53.160;8.202;2023-04-01T01:14:04;45.35;;;19.90;;
41059;SDS011;26811;53.160;8.202;2023-04-01T01:19:15;43.65;;;19.02;;
41059;SDS011;26811;53.160;8.202;2023-04-01T01:29:34;42.10;;;17.80;;
41059;SDS011;26811;53.160;8.202;2023-04-01T01:34:48;38.23;;;16.97;;
41059;SDS011;26811;53.160;8.202;2023-04-01T01:40:15;35.67;;;16.00;;
41059;SDS011;26811;53.160;8.202;2023-04-01T01:51:00;31.27;;;14.57;;
41059;SDS011;26811;53.160;8.202;2023-04-01T01:56:01;32.47;;;15.25;;
41059;SDS011;26811;53.160;8.202;2023-04-01T02:01:02;36.20;;;16.35;;
41059;SDS011;26811;53.160;8.202;2023-04-01T02:06:06;37.08;;;16.35;;
41059;SDS011;26811;53.160;8.202;2023-04-01T02:11:12;40.33;;;16.35;;
41059;SDS011;26811;53.160;8.202;2023-04-01T02:16:16;39.28;;;17.02;;
41059;SDS011;26811;53.160;8.202;2023-04-01T02:21:31;39.30;;;16.10;;
41059;SDS011;26811;53.160;8.202;2023-04-01T02:26:33;36.88;;;16.65;;
41059;SDS011;26811;53.160;8.202;2023-04-01T02:31:34;43.42;;;17.42;;
41059;SDS011;26811;53.160;8.202;2023-04-01T02:36:36;39.53;;;16.70;;
41059;SDS011;26811;53.160;8.202;2023-04-01T02:41:39;41.78;;;17.75;;
41059;SDS011;26811;53.160;8.202;2023-04-01T02:46:41;45.13;;;17.38;;
41059;SDS011;26811;53.160;8.202;2023-04-01T02:51:42;42.67;;;17.98;;
41059;SDS011;26811;53.160;8.202;2023-04-01T02:56:42;41.17;;;16.27;;
41059;SDS011;26811;53.160;8.202;2023-04-01T03:01:43;43.88;;;16.23;;
41059;SDS011;26811;53.160;8.202;2023-04-01T03:06:43;42.85;;;17.95;;
41059;SDS011;26811;53.160;8.202;2023-04-01T03:11:44;48.83;;;17.85;;
41059;SDS011;26811;53.160;8.202;2023-04-01T03:16:44;45.63;;;17.08;;
41059;SDS011;26811;53.160;8.202;2023-04-01T03:21:45;48.92;;;16.70;;
41059;SDS011;26811;53.160;8.202;2023-04-01T03:26:45;56.50;;;18.90;;
41059;SDS011;26811;53.160;8.202;2023-04-01T03:31:46;57.35;;;18.70;;
41059;SDS011;26811;53.160;8.202;2023-04-01T03:36:46;54.15;;;18.13;;
41059;SDS011;26811;53.160;8.202;2023-04-01T03:41:47;51.60;;;16.23;;
41059;SDS011;26811;53.160;8.202;2023-04-01T03:46:47;53.75;;;18.15;;
41059;SDS011;26811;53.160;8.202;2023-04-01T03:51:48;58.30;;;18.60;;
41059;SDS011;26811;53.160;8.202;2023-04-01T03:56:48;56.13;;;17.88;;
41059;SDS011;26811;53.160;8.202;2023-04-01T04:01:49;50.03;;;17.00;;
41059;SDS011;26811;53.160;8.202;2023-04-01T04:06:50;52.88;;;17.30;;
41059;SDS011;26811;53.160;8.202;2023-04-01T04:11:51;57.35;;;17.33;;
41059;SDS011;26811;53.160;8.202;2023-04-01T04:16:51;54.40;;;17.23;;
41059;SDS011;26811;53.160;8.202;2023-04-01T04:21:52;64.43;;;18.90;;
41059;SDS011;26811;53.160;8.202;2023-04-01T04:26:52;59.15;;;18.38;;
41059;SDS011;26811;53.160;8.202;2023-04-01T04:31:53;60.58;;;16.83;;
41059;SDS011;26811;53.160;8.202;2023-04-01T04:36:53;62.67;;;16.52;;
41059;SDS011;26811;53.160;8.202;2023-04-01T04:41:54;64.65;;;16.92;;
41059;SDS011;26811;53.160;8.202;2023-04-01T04:46:55;57.05;;;16.77;;
41059;SDS011;26811;53.160;8.202;2023-04-01T04:51:55;57.22;;;16.60;;
41059;SDS011;26811;53.160;8.202;2023-04-01T04:56:56;46.78;;;15.55;;
41059;SDS011;26811;53.160;8.202;2023-04-01T05:01:56;53.72;;;15.10;;
41059;SDS011;26811;53.160;8.202;2023-04-01T05:06:57;60.28;;;16.38;;
41059;SDS011;26811;53.160;8.202;2023-04-01T05:11:57;57.75;;;16.65;;
41059;SDS011;26811;53.160;8.202;2023-04-01T05:16:58;59.20;;;15.65;;
41059;SDS011;26811;53.160;8.202;2023-04-01T05:21:58;61.15;;;17.38;;
41059;SDS011;26811;53.160;8.202;2023-04-01T05:26:59;55.53;;;15.30;;
41059;SDS011;26811;53.160;8.202;2023-04-01T05:32:00;56.95;;;16.45;;
41059;SDS011;26811;53.160;8.202;2023-04-01T05:37:00;52.22;;;14.82;;
41059;SDS011;26811;53.160;8.202;2023-04-01T05:42:01;42.20;;;13.95;;
41059;SDS011;26811;53.160;8.202;2023-04-01T05:47:02;44.92;;;14.65;;
41059;SDS011;26811;53.160;8.202;2023-04-01T05:52:03;42.35;;;13.95;;
41059;SDS011;26811;53.160;8.202;2023-04-01T05:57:04;43.75;;;14.05;;
41059;SDS011;26811;53.160;8.202;2023-04-01T06:02:04;41.30;;;13.05;;
41059;SDS011;26811;53.160;8.202;2023-04-01T06:07:15;38.60;;;13.20;;
41059;SDS011;26811;53.160;8.202;2023-04-01T06:23:17;29.65;;;11.88;;
41059;SDS011;26811;53.160;8.202;2023-04-01T06:28:36;33.00;;;12.93;;
41059;SDS011;26811;53.160;8.202;2023-04-01T06:39:04;34.15;;;12.48;;
41059;SDS011;26811;53.160;8.202;2023-04-01T06:45:08;28.83;;;13.15;;
41059;SDS011;26811;53.160;8.202;2023-04-01T07:01:03;32.58;;;14.25;;
41059;SDS011;26811;53.160;8.202;2023-04-01T07:06:20;30.45;;;12.68;;
41059;SDS011;26811;53.160;8.202;2023-04-01T07:11:37;23.33;;;12.00;;
41059;SDS011;26811;53.160;8.202;2023-04-01T07:16:46;24.85;;;11.20;;
41059;SDS011;26811;53.160;8.202;2023-04-01T07:21:54;21.90;;;11.15;;
41059;SDS011;26811;53.160;8.202;2023-04-01T07:27:00;26.23;;;10.60;;
41059;SDS011;26811;53.160;8.202;2023-04-01T07:32:17;21.70;;;10.48;;
41059;SDS011;26811;53.160;8.202;2023-04-01T07:48:05;19.20;;;10.55;;
41059;SDS011;26811;53.160;8.202;2023-04-01T07:53:36;22.95;;;10.43;;
41059;SDS011;26811;53.160;8.202;2023-04-01T07:59:05;20.20;;;10.65;;
41059;SDS011;26811;53.160;8.202;2023-04-01T08:05:11;16.92;;;8.90;;
41059;SDS011;26811;53.160;8.202;2023-04-01T08:15:44;13.38;;;8.52;;
41059;SDS011;26811;53.160;8.202;2023-04-01T08:25:53;10.77;;;8.00;;
41059;SDS011;26811;53.160;8.202;2023-04-01T08:31:03;11.07;;;7.28;;
41059;SDS011;26811;53.160;8.202;2023-04-01T08:36:15;11.80;;;7.70;;
41059;SDS011;26811;53.160;8.202;2023-04-01T08:46:33;9.82;;;6.70;;
41059;SDS011;26811;53.160;8.202;2023-04-01T09:14:06;8.07;;;5.25;;
41059;SDS011;26811;53.160;8.202;2023-04-01T09:40:15;4.93;;;4.10;;
41059;SDS011;26811;53.160;8.202;2023-04-01T09:45:39;8.95;;;6.07;;
41059;SDS011;26811;53.160;8.202;2023-04-01T10:01:42;1.90;;;1.80;;
41059;SDS011;26811;53.160;8.202;2023-04-01T10:07:59;1.92;;;1.83;;
41059;SDS011;26811;53.160;8.202;2023-04-01T10:13:06;2.28;;;2.17;;
41059;SDS011;26811;53.160;8.202;2023-04-01T10:18:29;2.78;;;2.58;;
41059;SDS011;26811;53.160;8.202;2023-04-01T10:29:10;3.70;;;3.40;;
41059;SDS011;26811;53.160;8.202;2023-04-01T10:34:46;3.88;;;3.58;;
41059;SDS011;26811;53.160;8.202;2023-04-01T10:45:37;5.22;;;4.72;;
41059;SDS011;26811;53.160;8.202;2023-04-01T10:51:14;6.55;;;5.75;;
41059;SDS011;26811;53.160;8.202;2023-04-01T11:24:05;8.43;;;6.95;;
41059;SDS011;26811;53.160;8.202;2023-04-01T11:45:34;9.45;;;6.72;;
41059;SDS011;26811;53.160;8.202;2023-04-01T11:50:40;7.60;;;6.90;;
41059;SDS011;26811;53.160;8.202;2023-04-01T11:56:10;9.10;;;8.20;;
41059;SDS011;26811;53.160;8.202;2023-04-01T12:12:11;8.68;;;7.78;;
41059;SDS011;26811;53.160;8.202;2023-04-01T12:17:26;6.85;;;6.15;;
41059;SDS011;26811;53.160;8.202;2023-04-01T12:28:24;5.50;;;4.53;;
41059;SDS011;26811;53.160;8.202;2023-04-01T12:45:41;8.60;;;7.70;;
41059;SDS011;26811;53.160;8.202;2023-04-01T12:55:59;8.25;;;7.45;;
41059;SDS011;26811;53.160;8.202;2023-04-01T13:27:26;8.35;;;7.43;;
41059;SDS011;26811;53.160;8.202;2023-04-01T13:32:47;8.20;;;7.10;;
41059;SDS011;26811;53.160;8.202;2023-04-01T13:59:22;5.78;;;5.28;;
41059;SDS011;26811;53.160;8.202;2023-04-01T14:04:49;6.20;;;5.60;;
41059;SDS011;26811;53.160;8.202;2023-04-01T14:10:05;8.23;;;6.32;;
41059;SDS011;26811;53.160;8.202;2023-04-01T14:20:33;6.05;;;5.55;;
41059;SDS011;26811;53.160;8.202;2023-04-01T14:41:48;8.10;;;7.28;;
41059;SDS011;26811;53.160;8.202;2023-04-01T14:47:22;7.13;;;6.43;;
41059;SDS011;26811;53.160;8.202;2023-04-01T14:53:11;8.10;;;6.40;;
41059;SDS011;26811;53.160;8.202;2023-04-01T14:58:21;7.60;;;6.07;;
41059;SDS011;26811;53.160;8.202;2023-04-01T15:03:32;10.23;;;7.32;;
41059;SDS011;26811;53.160;8.202;2023-04-01T15:08:55;9.10;;;6.85;;
41059;SDS011;26811;53.160;8.202;2023-04-01T15:14:27;9.63;;;7.82;;
41059;SDS011;26811;53.160;8.202;2023-04-01T15:30:35;14.75;;;9.75;;
41059;SDS011;26811;53.160;8.202;2023-04-01T15:41:11;16.55;;;9.68;;
41059;SDS011;26811;53.160;8.202;2023-04-01T15:46:24;11.05;;;8.43;;
41059;SDS011;26811;53.160;8.202;2023-04-01T16:02:17;15.25;;;8.55;;
41059;SDS011;26811;53.160;8.202;2023-04-01T16:33:54;19.52;;;10.45;;
41059;SDS011;26811;53.160;8.202;2023-04-01T16:44:31;21.30;;;11.10;;
41059;SDS011;26811;53.160;8.202;2023-04-01T16:55:17;16.05;;;9.52;;
41059;SDS011;26811;53.160;8.202;2023-04-01T17:00:25;18.55;;;10.45;;
41059;SDS011;26811;53.160;8.202;2023-04-01T17:05:49;16.52;;;10.40;;
41059;SDS011;26811;53.160;8.202;2023-04-01T17:11:16;17.17;;;10.68;;
41059;SDS011;26811;53.160;8.202;2023-04-01T17:48:23;13.20;;;9.00;;
41059;SDS011;26811;53.160;8.202;2023-04-01T17:53:51;13.32;;;8.00;;
41059;SDS011;26811;53.160;8.202;2023-04-01T17:59:09;14.05;;;7.97;;
41059;SDS011;26811;53.160;8.202;2023-04-01T18:09:38;16.50;;;8.45;;
41059;SDS011;26811;53.160;8.202;2023-04-01T18:20:25;13.15;;;7.95;;
41059;SDS011;26811;53.160;8.202;2023-04-01T18:25:49;16.70;;;8.77;;
41059;SDS011;26811;53.160;8.202;2023-04-01T18:30:55;13.95;;;8.02;;
41059;SDS011;26811;53.160;8.202;2023-04-01T18:36:09;14.52;;;7.90;;
41059;SDS011;26811;53.160;8.202;2023-04-01T18:41:22;15.55;;;7.78;;
41059;SDS011;26811;53.160;8.202;2023-04-01T18:57:53;18.65;;;9.88;;
41059;SDS011;26811;53.160;8.202;2023-04-01T19:08:28;17.38;;;9.40;;
41059;SDS011;26811;53.160;8.202;2023-04-01T19:13:46;24.05;;;10.02;;
41059;SDS011;26811;53.160;8.202;2023-04-01T19:24:53;17.15;;;9.77;;
41059;SDS011;26811;53.160;8.202;2023-04-01T19:35:32;15.30;;;9.32;;
41059;SDS011;26811;53.160;8.202;2023-04-01T19:46:01;16.40;;;10.35;;
41059;SDS011;26811;53.160;8.202;2023-04-01T20:02:27;17.52;;;9.05;;
41059;SDS011;26811;53.160;8.202;2023-04-01T20:07:56;17.55;;;8.75;;
41059;SDS011;26811;53.160;8.202;2023-04-01T20:13:26;20.05;;;9.65;;
41059;SDS011;26811;53.160;8.202;2023-04-01T20:18:39;15.10;;;8.25;;
41059;SDS011;26811;53.160;8.202;2023-04-01T20:23:46;15.68;;;8.27;;
41059;SDS011;26811;53.160;8.202;2023-04-01T21:00:54;11.68;;;7.70;;
41059;SDS011;26811;53.160;8.202;2023-04-01T21:42:54;11.20;;;7.72;;
41059;SDS011;26811;53.160;8.202;2023-04-01T21:54:12;13.88;;;9.07;;
41059;SDS011;26811;53.160;8.202;2023-04-01T21:59:33;16.17;;;8.93;;
41059;SDS011;26811;53.160;8.202;2023-04-01T22:05:10;13.68;;;8.73;;
41059;SDS011;26811;53.160;8.202;2023-04-01T22:21:29;11.95;;;7.72;;
41059;SDS011;26811;53.160;8.202;2023-04-01T22:26:46;9.97;;;7.20;;
41059;SDS011;26811;53.160;8.202;2023-04-01T22:32:00;10.18;;;7.53;;
41059;SDS011;26811;53.160;8.202;2023-04-01T22:42:50;10.05;;;6.88;;
41059;SDS011;26811;53.160;8.202;2023-04-01T22:58:49;10.73;;;6.50;;
41059;SDS011;26811;53.160;8.202;2023-04-01T23:03:55;11.68;;;6.95;;
41059;SDS011;26811;53.160;8.202;2023-04-01T23:09:06;10.70;;;7.35;;
41059;SDS011;26811;53.160;8.202;2023-04-01T23:19:24;18.05;;;7.40;;
41059;SDS011;26811;53.160;8.202;2023-04-01T23:24:37;14.75;;;6.70;;
41059;SDS011;26811;53.160;8.202;2023-04-01T23:29:45;13.68;;;7.03;;
41059;SDS011;26811;53.160;8.202;2023-04-01T23:34:49;13.15;;;6.53;;
41059;SDS011;26811;53.160;8.202;2023-04-01T23:39:54;11.18;;;5.57;;
41059;SDS011;26811;53.160;8.202;2023-04-01T23:44:58;10.15;;;6.13;;
41059;SDS011;26811;53.160;8.202;2023-04-01T23:50:13;12.48;;;6.40;;
41059;SDS011;26811;53.160;8.202;2023-04-01T23:55:26;9.65;;;4.70;;
